sensor_id;sensor_type;location;lat;lon;timestamp;temperature;humidity
16388;DHT22;8303;53.446;9.988;2023-02-28T05:46:17;-2.50;1.00
16388;DHT22;8303;53.446;9.988;2023-02-28T05:48:46;-2.50;1.00
16388;DHT22;8303;53.446;9.988;2023-02-28T05:51:14;-2.50;1.00
16388;DHT22;8303;53.446;9.988;2023-02-28T05:53:41;-2.50;1.00
16388;DHT22;8303;53.446;9.988;2023-02-28T05:56:08;-2.40;1.00
16388;DHT22;8303;53.446;9.988;2023-02-28T05:58:36;-2.50;1.00
16388;DHT22;8303;53.446;9.988;2023-02-28T06:01:20;-2.50;1.00
16388;DHT22;8303;53.446;9.988;2023-02-28T06:03:48;-2.40;1.00
16388;DHT22;8303;53.446;9.988;2023-02-28T06:06:15;-2.20;1.00
16388;DHT22;8303;53.446;9.988;2023-02-28T06:08:42;-2.20;71.90
16388;DHT22;8303;53.446;9.988;2023-02-28T06:11:10;-2.30;61.30
16388;DHT22;8303;53.446;9.988;2023-02-28T06:13:38;-2.30;76.20
16388;DHT22;8303;53.446;9.988;2023-02-28T06:16:05;-2.30;95.10
16388;DHT22;8303;53.446;9.988;2023-02-28T06:18:34;-2.40;99.90
16388;DHT22;8303;53.446;9.988;2023-02-28T06:21:02;-2.40;99.90
16388;DHT22;8303;53.446;9.988;2023-02-28T06:23:29;-2.40;99.90
16388;DHT22;8303;53.446;9.988;2023-02-28T06:25:57;-2.40;99.90
16388;DHT22;8303;53.446;9.988;2023-02-28T06:28:24;-2.40;99.90
16388;DHT22;8303;53.446;9.988;2023-02-28T06:30:51;-2.40;99.90
16388;DHT22;8303;53.446;9.988;2023-02-28T06:33:19;-2.40;99.90
16388;DHT22;8303;53.446;9.988;2023-02-28T06:35:50;-2.40;99.90
16388;DHT22;8303;53.446;9.988;2023-02-28T06:38:17;-2.20;99.90
16388;DHT22;8303;53.446;9.988;2023-02-28T06:40:45;-2.30;1.00
16388;DHT22;8303;53.446;9.988;2023-02-28T06:43:19;-2.30;1.00
16388;DHT22;8303;53.446;9.988;2023-02-28T06:45:46;-2.20;1.00
16388;DHT22;8303;53.446;9.988;2023-02-28T06:48:15;-2.00;1.00
16388;DHT22;8303;53.446;9.988;2023-02-28T06:50:43;-2.10;1.00
16388;DHT22;8303;53.446;9.988;2023-02-28T06:53:12;-2.10;1.00
16388;DHT22;8303;53.446;9.988;2023-02-28T06:55:39;-2.10;1.00
16388;DHT22;8303;53.446;9.988;2023-02-28T06:58:06;-2.00;1.00
16388;DHT22;8303;53.446;9.988;2023-02-28T07:00:41;-2.00;1.00
16388;DHT22;8303;53.446;9.988;2023-02-28T07:03:09;-2.10;1.00
16388;DHT22;8303;53.446;9.988;2023-02-28T07:05:37;-1.90;1.00
16388;DHT22;8303;53.446;9.988;2023-02-28T07:08:05;-1.90;1.00
16388;DHT22;8303;53.446;9.988;2023-02-28T07:10:43;-1.80;1.00
16388;DHT22;8303;53.446;9.988;2023-02-28T07:13:11;-1.80;1.00
16388;DHT22;8303;53.446;9.988;2023-02-28T07:15:38;-1.50;1.00
16388;DHT22;8303;53.446;9.988;2023-02-28T07:18:05;-1.60;1.00
16388;DHT22;8303;53.446;9.988;2023-02-28T07:20:32;-1.50;1.00
16388;DHT22;8303;53.446;9.988;2023-02-28T07:22:59;-1.30;1.00
16388;DHT22;8303;53.446;9.988;2023-02-28T07:25:28;-1.30;1.00
16388;DHT22;8303;53.446;9.988;2023-02-28T07:27:57;-1.30;99.90
16388;DHT22;8303;53.446;9.988;2023-02-28T07:30:26;-1.20;99.90
16388;DHT22;8303;53.446;9.988;2023-02-28T07:32:53;-0.70;99.90
16388;DHT22;8303;53.446;9.988;2023-02-28T07:35:22;-0.90;99.90
16388;DHT22;8303;53.446;9.988;2023-02-28T07:37:49;-0.50;99.90
16388;DHT22;8303;53.446;9.988;2023-02-28T07:40:16;-0.80;99.90
16388;DHT22;8303;53.446;9.988;2023-02-28T07:42:44;-0.80;88.60
16388;DHT22;8303;53.446;9.988;2023-02-28T07:45:13;-0.70;1.00
16388;DHT22;8303;53.446;9.988;2023-02-28T07:47:41;-0.60;1.00
16388;DHT22;8303;53.446;9.988;2023-02-28T07:50:12;-0.50;1.00
16388;DHT22;8303;53.446;9.988;2023-02-28T07:52:40;-0.30;1.00
16388;DHT22;8303;53.446;9.988;2023-02-28T07:55:08;-0.10;1.00
16388;DHT22;8303;53.446;9.988;2023-02-28T07:57:36;-0.10;1.00
16388;DHT22;8303;53.446;9.988;2023-02-28T08:00:04;0.10;99.90
16388;DHT22;8303;53.446;9.988;2023-02-28T08:02:33;0.20;99.90
16388;DHT22;8303;53.446;9.988;2023-02-28T08:05:00;0.40;91.50
16388;DHT22;8303;53.446;9.988;2023-02-28T08:07:28;0.50;64.70
16388;DHT22;8303;53.446;9.988;2023-02-28T08:09:55;0.60;1.00
16388;DHT22;8303;53.446;9.988;2023-02-28T08:12:22;0.80;1.00
16388;DHT22;8303;53.446;9.988;2023-02-28T08:14:49;0.90;1.00
16388;DHT22;8303;53.446;9.988;2023-02-28T08:17:16;1.10;99.90
16388;DHT22;8303;53.446;9.988;2023-02-28T08:19:46;1.20;1.00
16388;DHT22;8303;53.446;9.988;2023-02-28T08:22:13;1.40;1.00
16388;DHT22;8303;53.446;9.988;2023-02-28T08:24:41;1.70;99.90
16388;DHT22;8303;53.446;9.988;2023-02-28T08:27:08;1.60;99.90
16388;DHT22;8303;53.446;9.988;2023-02-28T08:29:37;1.60;99.90
16388;DHT22;8303;53.446;9.988;2023-02-28T08:32:05;1.90;99.90
16388;DHT22;8303;53.446;9.988;2023-02-28T08:34:32;1.70;12.00
16388;DHT22;8303;53.446;9.988;2023-02-28T08:37:00;1.80;1.00
16388;DHT22;8303;53.446;9.988;2023-02-28T08:39:27;1.80;1.00
16388;DHT22;8303;53.446;9.988;2023-02-28T08:41:55;1.90;1.00
16388;DHT22;8303;53.446;9.988;2023-02-28T08:44:22;1.90;1.00
16388;DHT22;8303;53.446;9.988;2023-02-28T08:46:49;1.90;1.00
16388;DHT22;8303;53.446;9.988;2023-02-28T08:49:16;2.10;1.00
16388;DHT22;8303;53.446;9.988;2023-02-28T08:51:43;2.20;1.00
16388;DHT22;8303;53.446;9.988;2023-02-28T08:54:12;2.40;1.00
16388;DHT22;8303;53.446;9.988;2023-02-28T08:56:41;2.70;1.00
16388;DHT22;8303;53.446;9.988;2023-02-28T08:59:09;2.70;1.00
16388;DHT22;8303;53.446;9.988;2023-02-28T09:01:36;2.80;1.00
16388;DHT22;8303;53.446;9.988;2023-02-28T09:04:03;2.90;1.00
16388;DHT22;8303;53.446;9.988;2023-02-28T09:06:32;3.00;1.00
16388;DHT22;8303;53.446;9.988;2023-02-28T09:08:59;3.20;1.00
16388;DHT22;8303;53.446;9.988;2023-02-28T09:11:28;3.30;1.00
16388;DHT22;8303;53.446;9.988;2023-02-28T09:13:55;3.50;1.00
16388;DHT22;8303;53.446;9.988;2023-02-28T09:16:22;3.60;1.00
16388;DHT22;8303;53.446;9.988;2023-02-28T09:18:49;3.70;1.00
16388;DHT22;8303;53.446;9.988;2023-02-28T09:21:18;3.80;1.00
16388;DHT22;8303;53.446;9.988;2023-02-28T09:23:47;3.90;1.00
16388;DHT22;8303;53.446;9.988;2023-02-28T09:26:15;4.00;1.00
16388;DHT22;8303;53.446;9.988;2023-02-28T09:28:45;4.00;1.00
16388;DHT22;8303;53.446;9.988;2023-02-28T09:31:14;4.10;1.00
16388;DHT22;8303;53.446;9.988;2023-02-28T09:33:41;4.20;1.00
16388;DHT22;8303;53.446;9.988;2023-02-28T09:36:08;4.20;1.00
16388;DHT22;8303;53.446;9.988;2023-02-28T09:38:35;4.30;1.00
16388;DHT22;8303;53.446;9.988;2023-02-28T09:41:08;4.40;1.00
16388;DHT22;8303;53.446;9.988;2023-02-28T09:43:40;4.50;1.00
16388;DHT22;8303;53.446;9.988;2023-02-28T09:46:18;4.60;1.00
16388;DHT22;8303;53.446;9.988;2023-02-28T09:48:48;4.80;1.00
16388;DHT22;8303;53.446;9.988;2023-02-28T09:51:28;4.80;1.00
16388;DHT22;8303;53.446;9.988;2023-02-28T09:53:57;5.00;1.00
16388;DHT22;8303;53.446;9.988;2023-02-28T09:56:27;5.00;99.90
16388;DHT22;8303;53.446;9.988;2023-02-28T09:59:00;5.20;99.90
16388;DHT22;8303;53.446;9.988;2023-02-28T10:01:33;5.20;99.90
16388;DHT22;8303;53.446;9.988;2023-02-28T10:04:08;5.20;99.90
16388;DHT22;8303;53.446;9.988;2023-02-28T10:06:44;5.20;99.90
16388;DHT22;8303;53.446;9.988;2023-02-28T10:09:14;5.30;99.90
16388;DHT22;8303;53.446;9.988;2023-02-28T10:11:44;5.30;99.90
16388;DHT22;8303;53.446;9.988;2023-02-28T10:14:15;5.10;99.90
16388;DHT22;8303;53.446;9.988;2023-02-28T10:16:46;5.20;99.90
16388;DHT22;8303;53.446;9.988;2023-02-28T10:19:21;5.30;99.90
16388;DHT22;8303;53.446;9.988;2023-02-28T10:21:55;5.60;99.90
16388;DHT22;8303;53.446;9.988;2023-02-28T10:24:32;5.60;99.90
16388;DHT22;8303;53.446;9.988;2023-02-28T10:27:01;5.70;99.90
16388;DHT22;8303;53.446;9.988;2023-02-28T10:29:36;5.80;99.90
16388;DHT22;8303;53.446;9.988;2023-02-28T10:32:04;5.60;99.90
16388;DHT22;8303;53.446;9.988;2023-02-28T10:34:32;5.60;99.90
16388;DHT22;8303;53.446;9.988;2023-02-28T10:36:59;5.70;99.90
16388;DHT22;8303;53.446;9.988;2023-02-28T10:39:38;5.80;99.90
16388;DHT22;8303;53.446;9.988;2023-02-28T10:42:20;5.80;99.90
16388;DHT22;8303;53.446;9.988;2023-02-28T10:45:05;5.60;99.90
16388;DHT22;8303;53.446;9.988;2023-02-28T10:47:40;5.60;99.90
16388;DHT22;8303;53.446;9.988;2023-02-28T10:50:28;5.60;99.90
16388;DHT22;8303;53.446;9.988;2023-02-28T10:53:07;5.60;99.90
16388;DHT22;8303;53.446;9.988;2023-02-28T10:55:37;5.60;99.90
16388;DHT22;8303;53.446;9.988;2023-02-28T10:58:21;5.70;99.90
16388;DHT22;8303;53.446;9.988;2023-02-28T11:00:49;5.80;99.90
16388;DHT22;8303;53.446;9.988;2023-02-28T11:03:37;5.90;99.90
16388;DHT22;8303;53.446;9.988;2023-02-28T11:06:07;5.90;99.90
16388;DHT22;8303;53.446;9.988;2023-02-28T11:08:34;5.90;99.90
16388;DHT22;8303;53.446;9.988;2023-02-28T11:11:10;5.80;99.90
16388;DHT22;8303;53.446;9.988;2023-02-28T11:13:37;5.80;99.90
16388;DHT22;8303;53.446;9.988;2023-02-28T11:16:14;5.90;99.90
16388;DHT22;8303;53.446;9.988;2023-02-28T11:18:48;5.80;99.90
16388;DHT22;8303;53.446;9.988;2023-02-28T11:21:20;5.60;99.90
16388;DHT22;8303;53.446;9.988;2023-02-28T11:23:49;5.60;99.90
16388;DHT22;8303;53.446;9.988;2023-02-28T11:26:36;5.60;99.90
16388;DHT22;8303;53.446;9.988;2023-02-28T11:29:17;5.70;99.90
16388;DHT22;8303;53.446;9.988;2023-02-28T11:32:01;5.70;99.90
16388;DHT22;8303;53.446;9.988;2023-02-28T11:34:33;5.80;99.90
16388;DHT22;8303;53.446;9.988;2023-02-28T11:37:01;5.80;99.90
16388;DHT22;8303;53.446;9.988;2023-02-28T11:39:33;5.90;99.90
16388;DHT22;8303;53.446;9.988;2023-02-28T11:45:11;6.00;99.90
16388;DHT22;8303;53.446;9.988;2023-02-28T11:47:45;6.00;99.90
16388;DHT22;8303;53.446;9.988;2023-02-28T11:50:27;6.00;99.90
16388;DHT22;8303;53.446;9.988;2023-02-28T11:53:13;6.00;99.90
16388;DHT22;8303;53.446;9.988;2023-02-28T11:55:44;5.90;99.90
16388;DHT22;8303;53.446;9.988;2023-02-28T11:58:20;6.10;99.90
16388;DHT22;8303;53.446;9.988;2023-02-28T12:00:59;6.10;99.90
16388;DHT22;8303;53.446;9.988;2023-02-28T12:03:34;6.00;99.90
16388;DHT22;8303;53.446;9.988;2023-02-28T12:06:15;5.90;99.90
16388;DHT22;8303;53.446;9.988;2023-02-28T12:08:52;5.90;99.90
16388;DHT22;8303;53.446;9.988;2023-02-28T12:11:30;5.80;99.90
16388;DHT22;8303;53.446;9.988;2023-02-28T12:17:03;6.00;99.90
16388;DHT22;8303;53.446;9.988;2023-02-28T12:19:40;5.90;99.90
16388;DHT22;8303;53.446;9.988;2023-02-28T12:22:26;5.90;99.90
16388;DHT22;8303;53.446;9.988;2023-02-28T12:27:54;6.00;99.90
16388;DHT22;8303;53.446;9.988;2023-02-28T12:30:24;6.00;99.90
16388;DHT22;8303;53.446;9.988;2023-02-28T12:32:54;6.10;99.90
16388;DHT22;8303;53.446;9.988;2023-02-28T12:35:25;6.20;99.90
16388;DHT22;8303;53.446;9.988;2023-02-28T12:37:57;6.40;99.90
16388;DHT22;8303;53.446;9.988;2023-02-28T12:40:28;6.40;99.90
16388;DHT22;8303;53.446;9.988;2023-02-28T12:43:03;6.30;99.90
16388;DHT22;8303;53.446;9.988;2023-02-28T12:45:40;6.30;99.90
16388;DHT22;8303;53.446;9.988;2023-02-28T12:48:10;6.40;99.90
16388;DHT22;8303;53.446;9.988;2023-02-28T12:50:40;6.30;99.90
16388;DHT22;8303;53.446;9.988;2023-02-28T12:53:13;6.30;99.90
16388;DHT22;8303;53.446;9.988;2023-02-28T12:55:47;6.40;99.90
16388;DHT22;8303;53.446;9.988;2023-02-28T12:58:23;6.50;99.90
16388;DHT22;8303;53.446;9.988;2023-02-28T13:01:10;6.60;99.90
16388;DHT22;8303;53.446;9.988;2023-02-28T13:04:07;6.70;99.90
16388;DHT22;8303;53.446;9.988;2023-02-28T13:06:59;6.80;99.90
16388;DHT22;8303;53.446;9.988;2023-02-28T13:09:31;6.80;99.90
16388;DHT22;8303;53.446;9.988;2023-02-28T13:11:58;6.90;99.90
16388;DHT22;8303;53.446;9.988;2023-02-28T13:14:28;6.90;99.90
16388;DHT22;8303;53.446;9.988;2023-02-28T13:16:59;6.90;99.90
16388;DHT22;8303;53.446;9.988;2023-02-28T13:19:30;6.90;99.90
16388;DHT22;8303;53.446;9.988;2023-02-28T13:21:58;7.00;99.90
16388;DHT22;8303;53.446;9.988;2023-02-28T13:24:45;6.90;99.90
16388;DHT22;8303;53.446;9.988;2023-02-28T13:27:32;7.00;99.90
16388;DHT22;8303;53.446;9.988;2023-02-28T13:30:00;7.00;99.90
16388;DHT22;8303;53.446;9.988;2023-02-28T13:32:33;6.90;99.90
16388;DHT22;8303;53.446;9.988;2023-02-28T13:35:43;7.10;99.90
16388;DHT22;8303;53.446;9.988;2023-02-28T13:38:35;7.00;99.90
16388;DHT22;8303;53.446;9.988;2023-02-28T13:44:09;6.90;99.90
16388;DHT22;8303;53.446;9.988;2023-02-28T13:49:28;7.00;99.90
16388;DHT22;8303;53.446;9.988;2023-02-28T13:52:09;7.00;99.90
16388;DHT22;8303;53.446;9.988;2023-02-28T13:54:50;7.00;99.90
16388;DHT22;8303;53.446;9.988;2023-02-28T13:57:27;6.90;99.90
16388;DHT22;8303;53.446;9.988;2023-02-28T14:00:13;7.10;99.90
16388;DHT22;8303;53.446;9.988;2023-02-28T14:03:25;7.30;99.90
16388;DHT22;8303;53.446;9.988;2023-02-28T14:06:21;7.40;99.90
16388;DHT22;8303;53.446;9.988;2023-02-28T14:08:55;7.50;99.90
16388;DHT22;8303;53.446;9.988;2023-02-28T14:11:30;7.40;99.90
16388;DHT22;8303;53.446;9.988;2023-02-28T14:13:58;7.40;99.90
16388;DHT22;8303;53.446;9.988;2023-02-28T14:16:27;7.50;99.90
16388;DHT22;8303;53.446;9.988;2023-02-28T14:19:04;7.40;99.90
16388;DHT22;8303;53.446;9.988;2023-02-28T14:21:33;7.50;99.90
16388;DHT22;8303;53.446;9.988;2023-02-28T14:24:24;7.50;99.90
16388;DHT22;8303;53.446;9.988;2023-02-28T14:27:16;7.40;99.90
16388;DHT22;8303;53.446;9.988;2023-02-28T14:30:26;7.50;99.90
16388;DHT22;8303;53.446;9.988;2023-02-28T14:33:16;7.40;99.90
16388;DHT22;8303;53.446;9.988;2023-02-28T14:35:57;7.30;99.90
16388;DHT22;8303;53.446;9.988;2023-02-28T14:38:29;7.30;99.90
16388;DHT22;8303;53.446;9.988;2023-02-28T14:41:00;7.40;99.90
16388;DHT22;8303;53.446;9.988;2023-02-28T14:43:28;7.50;99.90
16388;DHT22;8303;53.446;9.988;2023-02-28T14:45:57;7.60;99.90
16388;DHT22;8303;53.446;9.988;2023-02-28T14:48:26;7.60;99.90
16388;DHT22;8303;53.446;9.988;2023-02-28T14:50:56;7.70;99.90
16388;DHT22;8303;53.446;9.988;2023-02-28T14:53:27;7.90;99.90
16388;DHT22;8303;53.446;9.988;2023-02-28T14:55:54;7.80;99.90
16388;DHT22;8303;53.446;9.988;2023-02-28T14:58:24;8.00;99.90
16388;DHT22;8303;53.446;9.988;2023-02-28T15:00:53;8.30;99.90
16388;DHT22;8303;53.446;9.988;2023-02-28T15:03:21;8.40;99.90
16388;DHT22;8303;53.446;9.988;2023-02-28T15:05:54;8.40;99.90
16388;DHT22;8303;53.446;9.988;2023-02-28T15:08:23;8.40;99.90
16388;DHT22;8303;53.446;9.988;2023-02-28T15:10:53;8.30;99.90
16388;DHT22;8303;53.446;9.988;2023-02-28T15:13:21;8.50;99.90
16388;DHT22;8303;53.446;9.988;2023-02-28T15:15:51;8.80;99.90
16388;DHT22;8303;53.446;9.988;2023-02-28T15:18:28;8.80;99.90
16388;DHT22;8303;53.446;9.988;2023-02-28T15:21:02;9.10;99.90
16388;DHT22;8303;53.446;9.988;2023-02-28T15:23:30;9.20;99.90
16388;DHT22;8303;53.446;9.988;2023-02-28T15:25:57;9.00;99.90
16388;DHT22;8303;53.446;9.988;2023-02-28T15:28:24;9.10;99.90
16388;DHT22;8303;53.446;9.988;2023-02-28T15:30:55;8.90;99.90
16388;DHT22;8303;53.446;9.988;2023-02-28T15:33:24;8.90;99.90
16388;DHT22;8303;53.446;9.988;2023-02-28T15:35:51;8.50;99.90
16388;DHT22;8303;53.446;9.988;2023-02-28T15:38:35;8.10;99.90
16388;DHT22;8303;53.446;9.988;2023-02-28T15:41:02;7.60;99.90
16388;DHT22;8303;53.446;9.988;2023-02-28T15:43:36;7.10;99.90
16388;DHT22;8303;53.446;9.988;2023-02-28T15:46:06;7.00;99.90
16388;DHT22;8303;53.446;9.988;2023-02-28T15:48:38;7.00;99.90
16388;DHT22;8303;53.446;9.988;2023-02-28T15:51:16;6.80;99.90
16388;DHT22;8303;53.446;9.988;2023-02-28T15:53:48;6.80;99.90
16388;DHT22;8303;53.446;9.988;2023-02-28T15:56:22;6.50;99.90
16388;DHT22;8303;53.446;9.988;2023-02-28T15:58:50;6.50;99.90
16388;DHT22;8303;53.446;9.988;2023-02-28T16:01:24;6.40;99.90
16388;DHT22;8303;53.446;9.988;2023-02-28T16:03:55;6.20;99.90
16388;DHT22;8303;53.446;9.988;2023-02-28T16:06:36;6.10;99.90
16388;DHT22;8303;53.446;9.988;2023-02-28T16:09:07;6.00;99.90
16388;DHT22;8303;53.446;9.988;2023-02-28T16:11:38;5.90;99.90
16388;DHT22;8303;53.446;9.988;2023-02-28T16:14:08;5.80;99.90
16388;DHT22;8303;53.446;9.988;2023-02-28T16:16:42;5.80;99.90
16388;DHT22;8303;53.446;9.988;2023-02-28T16:19:09;5.60;99.90
16388;DHT22;8303;53.446;9.988;2023-02-28T16:21:36;5.60;99.90
16388;DHT22;8303;53.446;9.988;2023-02-28T16:24:04;5.60;99.90
16388;DHT22;8303;53.446;9.988;2023-02-28T16:26:32;5.60;99.90
16388;DHT22;8303;53.446;9.988;2023-02-28T16:29:00;5.50;99.90
16388;DHT22;8303;53.446;9.988;2023-02-28T16:31:28;5.40;99.90
16388;DHT22;8303;53.446;9.988;2023-02-28T16:33:55;5.20;99.90
16388;DHT22;8303;53.446;9.988;2023-02-28T16:36:23;5.00;99.90
16388;DHT22;8303;53.446;9.988;2023-02-28T16:38:50;4.90;99.90
16388;DHT22;8303;53.446;9.988;2023-02-28T16:41:20;4.80;99.90
16388;DHT22;8303;53.446;9.988;2023-02-28T16:43:50;4.70;99.90
16388;DHT22;8303;53.446;9.988;2023-02-28T16:46:17;4.60;99.90
16388;DHT22;8303;53.446;9.988;2023-02-28T16:48:45;4.40;99.90
16388;DHT22;8303;53.446;9.988;2023-02-28T16:51:15;4.40;99.90
16388;DHT22;8303;53.446;9.988;2023-02-28T16:53:42;4.30;99.90
16388;DHT22;8303;53.446;9.988;2023-02-28T16:56:21;4.10;99.90
16388;DHT22;8303;53.446;9.988;2023-02-28T16:58:49;4.00;99.90
16388;DHT22;8303;53.446;9.988;2023-02-28T17:01:17;3.80;99.90
16388;DHT22;8303;53.446;9.988;2023-02-28T17:03:47;3.70;99.90
16388;DHT22;8303;53.446;9.988;2023-02-28T17:06:20;3.60;99.90
16388;DHT22;8303;53.446;9.988;2023-02-28T17:08:47;3.50;99.90
16388;DHT22;8303;53.446;9.988;2023-02-28T17:11:14;3.40;99.90
16388;DHT22;8303;53.446;9.988;2023-02-28T17:13:43;3.30;99.90
16388;DHT22;8303;53.446;9.988;2023-02-28T17:16:19;3.20;99.90
16388;DHT22;8303;53.446;9.988;2023-02-28T17:18:46;3.10;99.90
16388;DHT22;8303;53.446;9.988;2023-02-28T17:21:14;3.00;99.90
16388;DHT22;8303;53.446;9.988;2023-02-28T17:23:42;2.90;99.90
16388;DHT22;8303;53.446;9.988;2023-02-28T17:26:13;2.80;99.90
16388;DHT22;8303;53.446;9.988;2023-02-28T17:28:40;2.70;99.90
16388;DHT22;8303;53.446;9.988;2023-02-28T17:31:09;2.60;99.90
16388;DHT22;8303;53.446;9.988;2023-02-28T17:33:36;2.60;99.90
16388;DHT22;8303;53.446;9.988;2023-02-28T17:36:03;2.50;99.90
16388;DHT22;8303;53.446;9.988;2023-02-28T17:38:30;2.40;99.90
16388;DHT22;8303;53.446;9.988;2023-02-28T17:40:57;2.30;99.90
16388;DHT22;8303;53.446;9.988;2023-02-28T17:43:24;2.30;99.90
16388;DHT22;8303;53.446;9.988;2023-02-28T17:45:51;2.20;99.90
16388;DHT22;8303;53.446;9.988;2023-02-28T17:48:20;2.20;99.90
16388;DHT22;8303;53.446;9.988;2023-02-28T17:50:47;2.20;99.90
16388;DHT22;8303;53.446;9.988;2023-02-28T17:53:14;2.10;99.90
16388;DHT22;8303;53.446;9.988;2023-02-28T17:55:41;2.00;99.90
16388;DHT22;8303;53.446;9.988;2023-02-28T17:58:09;1.90;99.90
16388;DHT22;8303;53.446;9.988;2023-02-28T18:00:37;1.90;99.90
16388;DHT22;8303;53.446;9.988;2023-02-28T18:03:04;1.80;99.90
16388;DHT22;8303;53.446;9.988;2023-02-28T18:05:32;1.70;99.90
16388;DHT22;8303;53.446;9.988;2023-02-28T18:08:01;1.60;99.90
16388;DHT22;8303;53.446;9.988;2023-02-28T18:10:28;1.60;99.90
16388;DHT22;8303;53.446;9.988;2023-02-28T18:12:59;1.60;99.90
16388;DHT22;8303;53.446;9.988;2023-02-28T18:15:26;1.50;1.00
16388;DHT22;8303;53.446;9.988;2023-02-28T18:17:53;1.40;1.00
16388;DHT22;8303;53.446;9.988;2023-02-28T18:20:20;1.40;1.00
16388;DHT22;8303;53.446;9.988;2023-02-28T18:22:49;1.40;1.00
16388;DHT22;8303;53.446;9.988;2023-02-28T18:25:16;1.40;1.00
16388;DHT22;8303;53.446;9.988;2023-02-28T18:27:44;1.30;1.00
16388;DHT22;8303;53.446;9.988;2023-02-28T18:30:24;1.20;1.00
16388;DHT22;8303;53.446;9.988;2023-02-28T18:32:51;1.20;1.00
16388;DHT22;8303;53.446;9.988;2023-02-28T18:35:18;1.10;1.00
16388;DHT22;8303;53.446;9.988;2023-02-28T18:38:02;1.00;1.00
16388;DHT22;8303;53.446;9.988;2023-02-28T18:40:29;0.90;1.00
16388;DHT22;8303;53.446;9.988;2023-02-28T18:42:56;0.80;1.00
16388;DHT22;8303;53.446;9.988;2023-02-28T18:45:23;0.70;1.00
16388;DHT22;8303;53.446;9.988;2023-02-28T18:47:50;0.60;1.00
16388;DHT22;8303;53.446;9.988;2023-02-28T18:50:18;0.50;1.00
16388;DHT22;8303;53.446;9.988;2023-02-28T18:52:44;0.40;1.00
16388;DHT22;8303;53.446;9.988;2023-02-28T18:55:13;0.40;1.00
16388;DHT22;8303;53.446;9.988;2023-02-28T18:57:44;0.30;1.00
16388;DHT22;8303;53.446;9.988;2023-02-28T19:00:12;0.20;1.00
16388;DHT22;8303;53.446;9.988;2023-02-28T19:02:39;0.20;1.00
16388;DHT22;8303;53.446;9.988;2023-02-28T19:05:07;0.10;1.00
16388;DHT22;8303;53.446;9.988;2023-02-28T19:07:36;0.10;1.00
16388;DHT22;8303;53.446;9.988;2023-02-28T19:10:04;0.00;1.00
16388;DHT22;8303;53.446;9.988;2023-02-28T19:12:34;-0.10;1.00
16388;DHT22;8303;53.446;9.988;2023-02-28T19:15:02;-0.10;1.00
16388;DHT22;8303;53.446;9.988;2023-02-28T19:17:29;-0.20;1.00
16388;DHT22;8303;53.446;9.988;2023-02-28T19:19:56;-0.20;1.00
16388;DHT22;8303;53.446;9.988;2023-02-28T19:22:22;-0.30;1.00
16388;DHT22;8303;53.446;9.988;2023-02-28T19:24:50;-0.30;1.00
16388;DHT22;8303;53.446;9.988;2023-02-28T19:27:17;-0.30;1.00
16388;DHT22;8303;53.446;9.988;2023-02-28T19:29:46;-0.40;1.00
16388;DHT22;8303;53.446;9.988;2023-02-28T19:32:13;-0.40;1.00
16388;DHT22;8303;53.446;9.988;2023-02-28T19:34:40;-0.40;1.00
16388;DHT22;8303;53.446;9.988;2023-02-28T19:37:07;-0.50;1.00
16388;DHT22;8303;53.446;9.988;2023-02-28T19:39:34;-0.50;1.00
16388;DHT22;8303;53.446;9.988;2023-02-28T19:42:06;-0.60;1.00
16388;DHT22;8303;53.446;9.988;2023-02-28T19:44:33;-0.70;1.00
16388;DHT22;8303;53.446;9.988;2023-02-28T19:47:02;-0.70;1.00
16388;DHT22;8303;53.446;9.988;2023-02-28T19:49:29;-0.80;1.00
16388;DHT22;8303;53.446;9.988;2023-02-28T19:51:56;-0.80;1.00
16388;DHT22;8303;53.446;9.988;2023-02-28T19:54:23;-0.90;1.00
16388;DHT22;8303;53.446;9.988;2023-02-28T19:56:50;-0.80;1.00
16388;DHT22;8303;53.446;9.988;2023-02-28T19:59:19;-0.80;1.00
16388;DHT22;8303;53.446;9.988;2023-02-28T20:01:45;-0.80;1.00
16388;DHT22;8303;53.446;9.988;2023-02-28T20:04:14;-0.90;1.00
16388;DHT22;8303;53.446;9.988;2023-02-28T20:06:41;-0.90;1.00
16388;DHT22;8303;53.446;9.988;2023-02-28T20:09:08;-1.00;1.00
16388;DHT22;8303;53.446;9.988;2023-02-28T20:11:36;-1.10;1.00
16388;DHT22;8303;53.446;9.988;2023-02-28T20:14:03;-1.00;1.00
16388;DHT22;8303;53.446;9.988;2023-02-28T20:16:31;-1.10;1.00
16388;DHT22;8303;53.446;9.988;2023-02-28T20:18:57;-1.10;1.00
16388;DHT22;8303;53.446;9.988;2023-02-28T20:21:26;-1.20;1.00
16388;DHT22;8303;53.446;9.988;2023-02-28T20:23:53;-1.20;1.00
16388;DHT22;8303;53.446;9.988;2023-02-28T20:26:19;-1.30;1.00
16388;DHT22;8303;53.446;9.988;2023-02-28T20:28:46;-1.30;1.00
16388;DHT22;8303;53.446;9.988;2023-02-28T20:31:14;-1.30;1.00
16388;DHT22;8303;53.446;9.988;2023-02-28T20:33:42;-1.30;1.00
16388;DHT22;8303;53.446;9.988;2023-02-28T20:36:09;-1.40;1.00
16388;DHT22;8303;53.446;9.988;2023-02-28T20:38:38;-1.40;1.00
16388;DHT22;8303;53.446;9.988;2023-02-28T20:41:06;-1.40;1.00
16388;DHT22;8303;53.446;9.988;2023-02-28T20:43:33;-1.40;1.00
16388;DHT22;8303;53.446;9.988;2023-02-28T20:46:01;-1.50;1.00
16388;DHT22;8303;53.446;9.988;2023-02-28T20:48:28;-1.50;1.00
16388;DHT22;8303;53.446;9.988;2023-02-28T20:50:57;-1.50;1.00
16388;DHT22;8303;53.446;9.988;2023-02-28T20:53:26;-1.50;1.00
16388;DHT22;8303;53.446;9.988;2023-02-28T20:55:55;-1.50;1.00
16388;DHT22;8303;53.446;9.988;2023-02-28T20:58:23;-1.50;1.00
16388;DHT22;8303;53.446;9.988;2023-02-28T21:00:57;-1.50;1.00
16388;DHT22;8303;53.446;9.988;2023-02-28T21:03:24;-1.60;1.00
16388;DHT22;8303;53.446;9.988;2023-02-28T21:05:51;-1.60;1.00
16388;DHT22;8303;53.446;9.988;2023-02-28T21:08:18;-1.60;1.00
16388;DHT22;8303;53.446;9.988;2023-02-28T21:10:45;-1.60;1.00
16388;DHT22;8303;53.446;9.988;2023-02-28T21:13:13;-1.70;1.00
16388;DHT22;8303;53.446;9.988;2023-02-28T21:15:40;-1.70;1.00
16388;DHT22;8303;53.446;9.988;2023-02-28T21:18:07;-1.70;1.00
16388;DHT22;8303;53.446;9.988;2023-02-28T21:20:34;-1.70;1.00
16388;DHT22;8303;53.446;9.988;2023-02-28T21:23:01;-1.80;1.00
16388;DHT22;8303;53.446;9.988;2023-02-28T21:25:28;-1.80;1.00
16388;DHT22;8303;53.446;9.988;2023-02-28T21:27:54;-1.80;1.00
